KBLM/BLM METAR and TAF weather

Enter ICAO airport designator
Station Type Date Time Source
KBLM METAR 2021/01/16 02:56 UTC NOAA

KBLM 160256Z AUTO 10012G17KT 3SM RA BR OVC004 08/08 A2975 RMK AO2 SLP076 P0019 60029 T00830083 56036


Station Type Date Time Source
KBLM Decoded METAR 2021/01/16 02:56 UTC NOAA

Belmar-Farmingdale, NJ, United States (KBLM) 40-11N 074-08W
Jan 15, 2021 - 09:56 PM EST / 2021.01.16 0256 UTC
Wind: from the E (100 degrees) at 14 MPH (12 KT) gusting to 20 MPH (17 KT):0
Visibility: 3 mile(s):0
Sky conditions: overcast
Weather: rain; mist
Precipitation last hour: 0.19 inches
Temperature: 46.9 F (8.3 C)
Dew Point: 46.9 F (8.3 C)
Relative Humidity: 100%
Pressure (altimeter): 29.75 in. Hg (1007 hPa)
Pressure tendency: 0.11 inches (3.6 hPa) lower than three hours ago
ob: KBLM 160256Z AUTO 10012G17KT 3SM RA BR OVC004 08/08 A2975 RMK AO2 SLP076 P0019 60029 T00830083 56036
cycle: 3

Station Type Date Time Source
KBLM TAF UTC NOAA

Error!

Example: see airport list